Flight Track Log - Related Links

Times and Time Zones

All times are in EDT time to prevent confusion due to time zone crossing. See the N3738B flight status page for this flight to view local times or setup timezone preferences in your user account.

Time Position Orientation Groundspeed Altitude Reporting Facility
EDT Latitude Longitude Course Direction KTS MPH feet Rate Location/Type
Sat 08:24:10 AM 40.6500 -73.8667 237° Southwest 201 231 1,800  Level New York TRACON
Sat 08:25:10 AM 40.6000 -73.9167 217° Southwest 259 298 3,800 2,500 Climbing New York TRACON
Sat 08:26:00 AM 40.4152 -74.1239 230° Southwest  Level FlightAware Approximate
Sat 08:26:10 AM 40.5333 -73.9667 210° Southwest 272 313 6,800  Level New York TRACON
Sat 08:27:00 AM 40.3375 -74.2487 232° Southwest  Level FlightAware Approximate
Sat 08:27:10 AM 40.4667 -74.0167 210° Southwest 281 323 9,700  Level New York TRACON
Sat 08:28:00 AM 40.2600 -74.3733 217° Southwest  Level FlightAware Approximate
Sat 08:28:10 AM 40.4000 -74.0667 210° Southwest 306 352 11,100  Level New York TRACON
Sat 08:28:51 AM 40.3539 -74.1156 219° Southwest 321 369 11,700 1,842 Climbing New York Center
Sat 08:29:00 AM 40.1993 -74.5013 237° Southwest  Level FlightAware Approximate
Sat 08:29:51 AM 40.3022 -74.2436 242° Southwest 338 389 14,200  Level New York Center
Sat 08:30:52 AM 40.2617 -74.3478 243° Southwest 368 423 16,100 1,438 Climbing New York Center
Sat 08:31:52 AM 40.2186 -74.4594 243° Southwest 368 423 17,100 1,160 Climbing New York Center
Sat 08:32:51 AM 40.1956 -74.5914 257° West 368 423 18,400 1,613 Climbing New York Center
Sat 08:33:51 AM 40.1847 -74.7322 264° West 387 445 20,300 1,686 Climbing New York Center
Sat 08:34:52 AM 40.1758 -74.8703 265° West 393 452 21,800 1,426 Climbing New York Center
Sat 08:35:53 AM 40.1622 -75.0189 263° West 398 458 23,200 1,361 Climbing New York Center
Sat 08:36:51 AM 40.1525 -75.1703 265° West 410 472 24,500 1,210 Climbing New York Center
Sat 08:37:52 AM 40.1381 -75.3242 263° West 427 491 25,600 1,190 Climbing New York Center
Sat 08:38:52 AM 40.1261 -75.4753 264° West 427 491 26,900 1,131 Climbing New York Center
Sat 08:39:54 AM 40.1114 -75.6319 263° West 432 497 27,900 1,160 Climbing New York Center
Sat 08:40:51 AM 40.0717 -75.7836 251° West 439 505 29,200 1,100 Climbing New York Center
Sat 08:42:54 AM 39.9794 -76.0681 247° West 450 518 31,200 928 Climbing Washington Center
Sat 08:43:52 AM 39.9308 -76.2164 247° West 455 524 32,000 857 Climbing Washington Center
Sat 08:44:53 AM 39.8800 -76.3675 246° West 455 524 32,900 1,033 Climbing Washington Center
Sat 08:45:54 AM 39.8244 -76.5369 247° West 455 524 34,100 1,220 Climbing Washington Center
Sat 08:46:51 AM 39.7753 -76.6822 246° West 455 524 35,300 966 Climbing Washington Center
Sat 08:47:52 AM 39.7261 -76.8353 247° West 455 524 36,000 344 Climbing Washington Center
Sat 08:48:53 AM 39.6786 -76.9800 247° West 455 524 36,000  Level Washington Center
Sat 08:49:54 AM 39.6289 -77.1272 246° West 455 524 36,000  Level Washington Center
Sat 08:50:52 AM 39.5811 -77.2717 247° West 455 524 36,000  Level Washington Center
Sat 08:51:53 AM 39.5331 -77.4186 247° West 455 524 36,000  Level Washington Center
Sat 08:52:54 AM 39.4850 -77.5678 247° West 455 524 36,000  Level Washington Center
Sat 08:53:52 AM 39.4469 -77.7172 252° West 450 518 36,000  Level Washington Center
Sat 08:54:52 AM 39.4131 -77.8667 254° West 439 505 36,000  Level Washington Center
Sat 08:55:54 AM 39.3725 -78.0186 251° West 439 505 36,000  Level Washington Center
Sat 08:56:52 AM 39.3361 -78.1675 253° West 439 505 36,000  Level Washington Center
Sat 08:57:52 AM 39.2972 -78.3192 252° West 439 505 36,000  Level Washington Center
Sat 08:58:53 AM 39.2583 -78.4678 251° West 439 505 36,000  Level Washington Center
Sat 08:59:53 AM 39.2214 -78.6192 253° West 439 505 36,000  Level Washington Center
Sat 09:00:54 AM 39.1822 -78.7675 251° West 439 505 36,000  Level Washington Center
Sat 09:01:52 AM 39.1425 -78.9181 251° West 439 505 36,000  Level Washington Center
Sat 09:02:52 AM 39.1008 -79.0714 251° West 444 511 36,000  Level Washington Center
Sat 09:03:53 AM 39.0628 -79.2247 252° West 444 511 36,000  Level Washington Center
Sat 09:04:54 AM 39.0228 -79.3778 251° West 451 519 36,000  Level Washington Center
Sat 09:05:54 AM 38.9806 -79.5250 250° West 451 519 36,000  Level Washington Center
Sat 09:08:19 AM 38.8869 -79.8739 251° West 445 512 36,000  Level Indianapolis Center
Sat 09:09:20 AM 38.8419 -80.0389 251° West 442 509 36,000 -49 Level Indianapolis Center
Sat 09:10:21 AM 38.8158 -80.1933 258° West 444 511 35,900  Descending Indianapolis Center
Sat 09:11:23 AM 38.8239 -80.3536 274° West 451 519 36,000 49 Climbing Indianapolis Center
Sat 09:12:24 AM 38.8325 -80.5122 274° West 446 513 36,000  Level Indianapolis Center
Sat 09:13:26 AM 38.8394 -80.6697 273° West 444 511 36,000  Level Indianapolis Center
Sat 09:14:27 AM 38.8461 -80.8258 273° West 440 506 36,000  Level Indianapolis Center
Sat 09:15:29 AM 38.8525 -80.9842 273° West 443 510 36,000  Level Indianapolis Center
Sat 09:16:30 AM 38.8603 -81.1719 273° West 440 506 36,000  Level Indianapolis Center
Sat 09:17:32 AM 38.8678 -81.3269 274° West 440 506 36,000  Level Indianapolis Center
Sat 09:18:33 AM 38.8739 -81.4831 273° West 445 512 36,000  Level Indianapolis Center
Sat 09:19:34 AM 38.8786 -81.6369 272° West 440 506 36,000  Level Indianapolis Center
Sat 09:20:36 AM 38.8842 -81.7925 273° West 441 507 36,000  Level Indianapolis Center
Sat 09:21:37 AM 38.8892 -81.9481 272° West 441 507 36,000  Level Indianapolis Center
Sat 09:22:39 AM 38.8950 -82.1356 272° West 441 507 36,000  Level Indianapolis Center
Sat 09:23:40 AM 38.8994 -82.2931 272° West 441 507 36,000  Level Indianapolis Center
Sat 09:24:42 AM 38.9042 -82.4511 272° West 444 511 36,000  Level Indianapolis Center
Sat 09:25:43 AM 38.9086 -82.6078 272° West 441 507 36,000  Level Indianapolis Center
Sat 09:26:44 AM 38.9131 -82.7644 272° West 439 505 36,000  Level Indianapolis Center
Sat 09:27:46 AM 38.9161 -82.9225 271° West 443 510 36,000  Level Indianapolis Center
Sat 09:28:47 AM 38.9197 -83.0772 272° West 437 503 36,000 -49 Level Indianapolis Center
Sat 09:29:49 AM 38.9233 -83.2381 272° West 436 502 35,900 -49 Descending Indianapolis Center
Sat 09:30:50 AM 38.9267 -83.3939 272° West 433 498 35,900 49 Level Indianapolis Center
Sat 09:31:52 AM 38.9297 -83.5514 271° West 434 499 36,000 49 Climbing Indianapolis Center
Sat 09:32:53 AM 38.9333 -83.7094 272° West 437 503 36,000  Level Indianapolis Center
Sat 09:33:54 AM 38.9353 -83.8653 271° West 435 501 36,000  Level Indianapolis Center
Sat 09:34:56 AM 38.9378 -84.0242 271° West 438 504 36,000  Level Indianapolis Center
Sat 09:35:57 AM 38.9403 -84.2069 271° West 435 501 36,000  Level Indianapolis Center
Sat 09:36:59 AM 38.9433 -84.3639 271° West 435 501 36,000  Level Indianapolis Center
Sat 09:36:59 AM 38.9433 -84.3639 271° West 435 501 36,000  Level Indianapolis Center
Sat 09:38:00 AM 38.9456 -84.5211 271° West 435 501 36,000  Level Indianapolis Center
Sat 09:38:00 AM 38.9456 -84.5211 271° West 435 501 36,000 -97 Level Indianapolis Center
Sat 09:39:02 AM 38.9467 -84.6742 271° West 427 491 35,900 -97 Descending Indianapolis Center
Sat 09:39:02 AM 38.9467 -84.6742 271° West 427 491 35,900 98 Level Indianapolis Center
Sat 09:40:03 AM 38.9481 -84.8283 271° West 427 491 36,000 98 Climbing Indianapolis Center
Sat 09:40:03 AM 38.9481 -84.8283 271° West 427 491 36,000  Level Indianapolis Center
Sat 09:41:05 AM 38.9492 -84.9725 271° West 424 488 36,000  Level Indianapolis Center
Sat 09:41:05 AM 38.9492 -84.9725 271° West 424 488 36,000  Level Indianapolis Center
Sat 09:42:06 AM 38.9506 -85.1258 271° West 428 493 36,000  Level Indianapolis Center
Sat 09:42:06 AM 38.9506 -85.1258 271° West 428 493 36,000  Level Indianapolis Center
Sat 09:43:08 AM 38.9508 -85.2769 270° West 425 489 36,000  Level Indianapolis Center
Sat 09:43:08 AM 38.9508 -85.2769 270° West 425 489 36,000  Level Indianapolis Center
Sat 09:44:09 AM 38.9528 -85.4294 271° West 427 491 36,000  Level Indianapolis Center
Sat 09:44:09 AM 38.9528 -85.4294 271° West 427 491 36,000  Level Indianapolis Center
Sat 09:45:11 AM 38.9525 -85.6153 270° West 431 496 36,000  Level Indianapolis Center
Sat 09:45:11 AM 38.9525 -85.6153 270° West 431 496 36,000  Level Indianapolis Center
Sat 09:46:12 AM 38.9519 -85.7681 270° West 430 495 36,000  Level Indianapolis Center
Sat 09:46:12 AM 38.9519 -85.7681 270° West 430 495 36,000  Level Indianapolis Center
Sat 09:47:14 AM 38.9531 -85.9225 271° West 432 497 36,000  Level Indianapolis Center
Sat 09:47:14 AM 38.9531 -85.9225 271° West 432 497 36,000  Level Indianapolis Center
Sat 09:48:15 AM 38.9528 -86.0767 270° West 432 497 36,000  Level Indianapolis Center
Sat 09:48:15 AM 38.9528 -86.0767 270° West 432 497 36,000  Level Indianapolis Center
Sat 09:49:17 AM 38.9517 -86.2322 270° West 435 501 36,000  Level Indianapolis Center
Sat 09:49:17 AM 38.9517 -86.2322 270° West 435 501 36,000  Level Indianapolis Center
Sat 09:50:18 AM 38.9508 -86.3875 270° West 435 501 36,000  Level Indianapolis Center
Sat 09:50:18 AM 38.9508 -86.3875 270° West 435 501 36,000  Level Indianapolis Center
Sat 09:51:19 AM 38.9508 -86.5450 270° West 440 506 36,000  Level Indianapolis Center
Sat 09:51:19 AM 38.9508 -86.5450 270° West 440 506 36,000  Level Indianapolis Center
Sat 09:52:21 AM 38.9494 -86.7039 269° West 439 505 36,000  Level Indianapolis Center
Sat 09:52:21 AM 38.9494 -86.7039 269° West 439 505 36,000  Level Indianapolis Center
Sat 09:53:22 AM 38.9481 -86.8625 269° West 443 510 36,000  Level Indianapolis Center
Sat 09:53:22 AM 38.9481 -86.8625 269° West 443 510 36,000  Level Indianapolis Center
Sat 09:54:24 AM 38.9472 -87.0531 270° West 446 513 36,000  Level Indianapolis Center
Sat 09:54:24 AM 38.9472 -87.0531 270° West 446 513 36,000  Level Indianapolis Center
Sat 09:55:25 AM 38.9450 -87.2114 269° West 445 512 36,000  Level Indianapolis Center
Sat 09:55:25 AM 38.9450 -87.2114 269° West 445 512 36,000  Level Indianapolis Center
Sat 09:56:27 AM 38.9425 -87.3706 269° West 446 513 36,000  Level Indianapolis Center
Sat 09:56:27 AM 38.9425 -87.3706 269° West 446 513 36,000  Level Indianapolis Center
Sat 09:57:28 AM 38.9403 -87.5297 269° West 447 514 36,000  Level Indianapolis Center
Sat 09:57:28 AM 38.9403 -87.5297 269° West 447 514 36,000  Level Indianapolis Center
Sat 09:58:30 AM 38.9375 -87.6875 269° West 445 512 36,000  Level Indianapolis Center
Sat 09:58:30 AM 38.9375 -87.6875 269° West 445 512 36,000  Level Indianapolis Center
Sat 09:59:31 AM 38.9353 -87.8450 269° West 443 510 36,000  Level Indianapolis Center
Sat 09:59:31 AM 38.9353 -87.8450 269° West 443 510 36,000  Level Indianapolis Center
Sat 10:00:32 AM 38.9322 -88.0019 269° West 441 507 36,000  Level Indianapolis Center
Sat 10:00:32 AM 38.9322 -88.0019 269° West 441 507 36,000  Level Indianapolis Center
Sat 10:01:34 AM 38.9300 -88.1589 269° West 441 507 36,000  Level Indianapolis Center
Sat 10:01:34 AM 38.9300 -88.1589 269° West 441 507 36,000  Level Indianapolis Center
Sat 10:02:35 AM 38.9269 -88.3164 269° West 440 506 36,000  Level Indianapolis Center
Sat 10:02:35 AM 38.9269 -88.3164 269° West 440 506 36,000  Level Indianapolis Center
Sat 10:03:37 AM 38.9214 -88.5083 268° West 446 513 36,000  Level Indianapolis Center
Sat 10:03:37 AM 38.9214 -88.5083 268° West 446 513 36,000  Level Indianapolis Center
Sat 10:04:38 AM 38.9181 -88.6678 269° West 446 513 36,000  Level Indianapolis Center
Sat 10:04:38 AM 38.9181 -88.6678 269° West 446 513 36,000  Level Indianapolis Center
Sat 10:05:40 AM 38.9144 -88.8292 268° West 453 521 36,000  Level Indianapolis Center
Sat 10:05:40 AM 38.9144 -88.8292 268° West 453 521 36,000  Level Indianapolis Center
Sat 10:06:41 AM 38.9106 -88.9897 268° West 449 517 36,000  Level Indianapolis Center
Sat 10:06:41 AM 38.9106 -88.9897 268° West 449 517 36,000  Level Indianapolis Center
Sat 10:07:43 AM 38.9064 -89.1514 268° West 453 521 36,000  Level Indianapolis Center
Sat 10:07:43 AM 38.9064 -89.1514 268° West 453 521 36,000  Level Indianapolis Center
Sat 10:08:44 AM 38.9014 -89.3136 268° West 453 521 36,000  Level Indianapolis Center
Sat 10:08:44 AM 38.9014 -89.3136 268° West 453 521 36,000  Level Indianapolis Center
Sat 10:10:03 AM 38.8950 -89.5428 268° West 458 527 36,000  Level Kansas City Center
Sat 10:10:03 AM 38.8950 -89.5428 268° West 458 527 36,000  Level Kansas City Center
Sat 10:11:05 AM 38.8883 -89.7108 267° West 466 536 36,000  Level Kansas City Center
Sat 10:11:05 AM 38.8883 -89.7108 267° West 466 536 36,000  Level Kansas City Center
Sat 10:12:07 AM 38.8822 -89.8786 267° West 470 541 36,000  Level Kansas City Center
Sat 10:12:07 AM 38.8822 -89.8786 267° West 470 541 36,000  Level Kansas City Center
Sat 10:13:08 AM 38.8786 -90.0403 268° West 472 543 36,000  Level Kansas City Center
Sat 10:13:08 AM 38.8786 -90.0403 268° West 472 543 36,000  Level Kansas City Center
Sat 10:14:10 AM 38.8739 -90.2100 268° West 475 547 36,000  Level Kansas City Center
Sat 10:14:10 AM 38.8739 -90.2100 268° West 475 547 36,000  Level Kansas City Center
Sat 10:15:12 AM 38.8675 -90.3800 267° West 476 548 36,000  Level Kansas City Center
Sat 10:15:12 AM 38.8675 -90.3800 267° West 476 548 36,000  Level Kansas City Center
Sat 10:16:13 AM 38.8503 -90.5817 264° West 484 557 36,000  Level Kansas City Center
Sat 10:16:13 AM 38.8503 -90.5817 264° West 484 557 36,000  Level Kansas City Center
Sat 10:17:15 AM 38.8278 -90.7453 260° West 485 558 36,000  Level Kansas City Center
Sat 10:17:15 AM 38.8278 -90.7453 260° West 485 558 36,000  Level Kansas City Center
Sat 10:18:17 AM 38.8056 -90.9097 260° West 478 550 36,000  Level Kansas City Center
Sat 10:18:17 AM 38.8056 -90.9097 260° West 478 550 36,000  Level Kansas City Center
Sat 10:19:18 AM 38.7847 -91.0761 261° West 477 549 36,000  Level Kansas City Center
Sat 10:19:18 AM 38.7847 -91.0761 261° West 477 549 36,000  Level Kansas City Center
Sat 10:20:20 AM 38.7622 -91.2433 260° West 477 549 36,000  Level Kansas City Center
Sat 10:20:20 AM 38.7622 -91.2433 260° West 477 549 36,000  Level Kansas City Center
Sat 10:21:22 AM 38.7400 -91.4097 260° West 478 550 36,000  Level Kansas City Center
Sat 10:21:22 AM 38.7400 -91.4097 260° West 478 550 36,000  Level Kansas City Center
Sat 10:22:23 AM 38.7128 -91.6075 260° West 474 545 36,000  Level Kansas City Center
Sat 10:22:23 AM 38.7128 -91.6075 260° West 474 545 36,000  Level Kansas City Center
Sat 10:23:25 AM 38.6883 -91.7853 260° West 476 548 36,000  Level Kansas City Center
Sat 10:23:25 AM 38.6883 -91.7853 260° West 476 548 36,000  Level Kansas City Center
Sat 10:24:27 AM 38.6636 -91.9536 259° West 481 554 36,000  Level Kansas City Center
Sat 10:24:27 AM 38.6636 -91.9536 259° West 481 554 36,000  Level Kansas City Center
Sat 10:25:29 AM 38.6389 -92.1217 259° West 482 555 36,000  Level Kansas City Center
Sat 10:25:29 AM 38.6389 -92.1217 259° West 482 555 36,000  Level Kansas City Center
Sat 10:26:30 AM 38.6144 -92.2875 259° West 480 552 36,000  Level Kansas City Center
Sat 10:26:30 AM 38.6144 -92.2875 259° West 480 552 36,000  Level Kansas City Center
Sat 10:27:32 AM 38.5900 -92.4522 259° West 476 548 36,000  Level Kansas City Center
Sat 10:27:32 AM 38.5900 -92.4522 259° West 476 548 36,000  Level Kansas City Center
Sat 10:28:34 AM 38.5656 -92.6169 259° West 474 545 36,000  Level Kansas City Center
Sat 10:28:34 AM 38.5656 -92.6169 259° West 474 545 36,000  Level Kansas City Center
Sat 10:29:36 AM 38.5408 -92.7817 259° West 474 545 36,000  Level Kansas City Center
Sat 10:29:36 AM 38.5408 -92.7817 259° West 474 545 36,000  Level Kansas City Center
Sat 10:30:37 AM 38.5111 -92.9783 259° West 474 545 36,000  Level Kansas City Center
Sat 10:30:37 AM 38.5111 -92.9783 259° West 474 545 36,000  Level Kansas City Center
Sat 10:31:39 AM 38.4867 -93.1381 259° West 466 536 36,000  Level Kansas City Center
Sat 10:31:39 AM 38.4867 -93.1381 259° West 466 536 36,000  Level Kansas City Center
Sat 10:32:41 AM 38.4619 -93.2969 259° West 460 529 36,000  Level Kansas City Center
Sat 10:32:41 AM 38.4619 -93.2969 259° West 460 529 36,000  Level Kansas City Center
Sat 10:33:43 AM 38.4381 -93.4547 259° West 457 526 36,000  Level Kansas City Center
Sat 10:33:43 AM 38.4381 -93.4547 259° West 457 526 36,000  Level Kansas City Center
Sat 10:34:44 AM 38.4139 -93.6114 259° West 452 520 36,000  Level Kansas City Center
Sat 10:34:44 AM 38.4139 -93.6114 259° West 452 520 36,000  Level Kansas City Center
Sat 10:35:46 AM 38.3886 -93.7689 258° West 453 521 36,000  Level Kansas City Center
Sat 10:35:46 AM 38.3886 -93.7689 258° West 453 521 36,000  Level Kansas City Center
Sat 10:36:48 AM 38.3647 -93.9269 259° West 454 522 36,000  Level Kansas City Center
Sat 10:36:48 AM 38.3647 -93.9269 259° West 454 522 36,000  Level Kansas City Center
Sat 10:37:50 AM 38.3369 -94.0964 258° West 457 526 36,000  Level Kansas City Center
Sat 10:37:50 AM 38.3369 -94.0964 258° West 457 526 36,000  Level Kansas City Center
Sat 10:38:51 AM 38.3078 -94.2761 258° West 460 529 36,000  Level Kansas City Center
Sat 10:38:51 AM 38.3078 -94.2761 258° West 460 529 36,000  Level Kansas City Center
Sat 10:39:53 AM 38.2817 -94.4294 258° West 461 531 36,000  Level Kansas City Center
Sat 10:39:53 AM 38.2817 -94.4294 258° West 461 531 36,000  Level Kansas City Center
Sat 10:40:55 AM 38.2689 -94.6047 265° West 454 522 36,000  Level Kansas City Center
Sat 10:40:55 AM 38.2689 -94.6047 265° West 454 522 36,000  Level Kansas City Center
Sat 10:41:57 AM 38.2642 -94.7544 268° West 445 512 36,000  Level Kansas City Center
Sat 10:41:57 AM 38.2642 -94.7544 268° West 445 512 36,000  Level Kansas City Center
Sat 10:42:58 AM 38.2594 -94.9056 268° West 444 511 36,000  Level Kansas City Center
Sat 10:42:58 AM 38.2594 -94.9056 268° West 444 511 36,000  Level Kansas City Center
Sat 10:44:00 AM 38.2536 -95.0803 268° West 443 510 36,000  Level Kansas City Center
Sat 10:44:00 AM 38.2536 -95.0803 268° West 443 510 36,000  Level Kansas City Center
Sat 10:45:02 AM 38.2481 -95.2322 267° West 444 511 36,000  Level Kansas City Center
Sat 10:45:02 AM 38.2481 -95.2322 267° West 444 511 36,000  Level Kansas City Center
Sat 10:46:04 AM 38.2411 -95.4086 267° West 445 512 36,000  Level Kansas City Center
Sat 10:46:04 AM 38.2411 -95.4086 267° West 445 512 36,000  Level Kansas City Center
Sat 10:47:06 AM 38.2353 -95.5606 267° West 448 516 36,000  Level Kansas City Center
Sat 10:47:06 AM 38.2353 -95.5606 267° West 448 516 36,000  Level Kansas City Center
Sat 10:48:07 AM 38.2289 -95.7386 267° West 449 517 36,000  Level Kansas City Center
Sat 10:48:07 AM 38.2289 -95.7386 267° West 449 517 36,000  Level Kansas City Center
Sat 10:49:09 AM 38.2222 -95.8894 267° West 446 513 36,000  Level Kansas City Center
Sat 10:49:09 AM 38.2222 -95.8894 267° West 446 513 36,000  Level Kansas City Center
Sat 10:50:11 AM 38.2156 -96.0397 267° West 445 512 36,000  Level Kansas City Center
Sat 10:50:11 AM 38.2156 -96.0397 267° West 445 512 36,000  Level Kansas City Center
Sat 10:51:13 AM 38.2083 -96.2153 267° West 443 510 36,000  Level Kansas City Center
Sat 10:51:13 AM 38.2083 -96.2153 267° West 443 510 36,000  Level Kansas City Center
Sat 10:52:15 AM 38.2017 -96.3661 267° West 446 513 36,000  Level Kansas City Center
Sat 10:52:15 AM 38.2017 -96.3661 267° West 446 513 36,000  Level Kansas City Center
Sat 10:53:16 AM 38.1939 -96.5183 266° West 446 513 36,000  Level Kansas City Center
Sat 10:53:16 AM 38.1939 -96.5183 266° West 446 513 36,000  Level Kansas City Center
Sat 10:54:18 AM 38.1867 -96.6750 267° West 445 512 36,000  Level Kansas City Center
Sat 10:54:18 AM 38.1867 -96.6750 267° West 445 512 36,000  Level Kansas City Center
Sat 10:55:20 AM 38.1775 -96.8619 266° West 444 511 36,000  Level Kansas City Center
Sat 10:55:20 AM 38.1775 -96.8619 266° West 444 511 36,000  Level Kansas City Center
Sat 10:56:22 AM 38.1694 -97.0181 266° West 444 511 36,000  Level Kansas City Center
Sat 10:56:22 AM 38.1694 -97.0181 266° West 444 511 36,000  Level Kansas City Center
Sat 10:57:24 AM 38.1617 -97.1742 266° West 445 512 36,000  Level Kansas City Center
Sat 10:57:24 AM 38.1617 -97.1742 266° West 445 512 36,000  Level Kansas City Center
Sat 10:58:25 AM 38.1531 -97.3306 266° West 445 512 36,000  Level Kansas City Center
Sat 10:58:25 AM 38.1531 -97.3306 266° West 445 512 36,000  Level Kansas City Center
Sat 10:59:27 AM 38.1431 -97.5081 266° West 444 511 36,000  Level Kansas City Center
Sat 10:59:27 AM 38.1431 -97.5081 266° West 444 511 36,000  Level Kansas City Center
Sat 11:00:29 AM 38.1339 -97.6653 266° West 447 514 36,000  Level Kansas City Center
Sat 11:00:29 AM 38.1339 -97.6653 266° West 447 514 36,000  Level Kansas City Center
Sat 11:01:31 AM 38.1258 -97.8119 266° West 449 517 36,000  Level Kansas City Center
Sat 11:01:31 AM 38.1258 -97.8119 266° West 449 517 36,000  Level Kansas City Center
Sat 11:02:33 AM 38.1178 -97.9719 266° West 453 521 36,000  Level Kansas City Center
Sat 11:02:33 AM 38.1178 -97.9719 266° West 453 521 36,000  Level Kansas City Center
Sat 11:03:34 AM 38.1067 -98.1558 266° West 454 522 36,000  Level Kansas City Center
Sat 11:03:34 AM 38.1067 -98.1558 266° West 454 522 36,000  Level Kansas City Center
Sat 11:04:36 AM 38.0981 -98.3006 266° West 451 519 36,000  Level Kansas City Center
Sat 11:04:36 AM 38.0981 -98.3006 266° West 451 519 36,000  Level Kansas City Center
Sat 11:05:38 AM 38.0875 -98.4581 265° West 451 519 36,000  Level Kansas City Center
Sat 11:05:38 AM 38.0875 -98.4581 265° West 451 519 36,000  Level Kansas City Center
Sat 11:06:40 AM 38.0753 -98.6456 265° West 446 513 36,000  Level Kansas City Center
Sat 11:06:40 AM 38.0753 -98.6456 265° West 446 513 36,000  Level Kansas City Center
Sat 11:07:42 AM 38.0650 -98.8017 265° West 446 513 36,000  Level Kansas City Center
Sat 11:07:42 AM 38.0650 -98.8017 265° West 446 513 36,000  Level Kansas City Center
Sat 11:08:44 AM 38.0547 -98.9578 265° West 445 512 36,000  Level Kansas City Center
Sat 11:08:44 AM 38.0547 -98.9578 265° West 445 512 36,000  Level Kansas City Center
Sat 11:09:46 AM 38.0442 -99.1139 265° West 444 511 36,000  Level Kansas City Center
Sat 11:09:46 AM 38.0442 -99.1139 265° West 444 511 36,000  Level Kansas City Center
Sat 11:10:48 AM 38.0331 -99.2700 265° West 445 512 36,000  Level Kansas City Center
Sat 11:10:48 AM 38.0331 -99.2700 265° West 445 512 36,000 387 Level Kansas City Center
Sat 11:11:50 AM 38.0206 -99.4275 264° West 448 516 36,400 387 Climbing Kansas City Center
Sat 11:11:50 AM 38.0206 -99.4275 264° West 448 516 36,400 1,161 Level Kansas City Center
Sat 11:12:52 AM 38.0086 -99.6056 265° West 449 517 37,600 1,161 Climbing Kansas City Center
Sat 11:12:52 AM 38.0086 -99.6056 265° West 449 517 37,600 387 Level Kansas City Center
Sat 11:13:54 AM 37.9967 -99.7778 265° West 442 509 38,000 387 Climbing Kansas City Center
Sat 11:13:54 AM 37.9967 -99.7778 265° West 442 509 38,000  Level Kansas City Center
Sat 11:14:56 AM 37.9850 -99.9247 264° West 441 507 38,000  Level Kansas City Center
Sat 11:14:56 AM 37.9850 -99.9247 264° West 441 507 38,000  Level Kansas City Center
Sat 11:15:57 AM 37.9703 -100.0964 264° West 439 505 38,000  Level Kansas City Center
Sat 11:15:57 AM 37.9703 -100.0964 264° West 439 505 38,000  Level Kansas City Center
Sat 11:16:59 AM 37.9597 -100.2425 265° West 437 503 38,000  Level Kansas City Center
Sat 11:16:59 AM 37.9597 -100.2425 265° West 437 503 38,000  Level Kansas City Center
Sat 11:18:01 AM 37.9450 -100.4108 264° West 433 498 38,000  Level Kansas City Center
Sat 11:18:01 AM 37.9450 -100.4108 264° West 433 498 38,000  Level Kansas City Center
Sat 11:19:03 AM 37.9342 -100.5550 265° West 431 496 38,000  Level Kansas City Center
Sat 11:19:03 AM 37.9342 -100.5550 265° West 431 496 38,000  Level Kansas City Center
Sat 11:20:05 AM 37.9206 -100.7244 264° West 436 502 38,000  Level Kansas City Center
Sat 11:20:05 AM 37.9206 -100.7244 264° West 436 502 38,000  Level Kansas City Center
Sat 11:26:22 AM 37.8303 -101.6725 263° West 438 504 38,000  Level Denver Center
Sat 11:27:19 AM 37.8158 -101.8189 263° West 439 505 38,000  Level Kansas City Center
Sat 11:28:21 AM 37.7983 -101.9883 263° West 436 502 38,000  Level Kansas City Center
Sat 11:29:23 AM 37.7842 -102.1319 263° West 433 498 38,000  Level Kansas City Center
Sat 11:30:25 AM 37.7694 -102.2769 263° West 434 499 38,000  Level Kansas City Center
Sat 11:31:27 AM 37.7528 -102.4450 263° West 433 498 38,000  Level Kansas City Center
Sat 11:32:29 AM 37.7367 -102.5883 262° West 432 497 38,000  Level Kansas City Center
Sat 11:33:31 AM 37.7189 -102.7550 262° West 430 495 38,000  Level Kansas City Center
Sat 11:34:38 AM 37.7028 -102.9094 263° West 435 501 38,000  Level Denver Center
Sat 11:35:40 AM 37.6842 -103.0767 262° West 433 498 38,000  Level Denver Center
Sat 11:36:42 AM 37.6681 -103.2189 262° West 428 493 38,000  Level Denver Center
Sat 11:37:44 AM 37.6161 -103.3744 247° West 430 495 38,000  Level Denver Center
Sat 11:38:46 AM 37.5706 -103.5089 247° West 433 498 38,000  Level Denver Center
Sat 11:39:48 AM 37.5192 -103.6642 247° West 430 495 38,000  Level Denver Center
Sat 11:40:50 AM 37.4736 -103.7989 247° West 433 498 38,000  Level Denver Center
Sat 11:41:52 AM 37.4206 -103.9594 247° West 438 504 38,000  Level Denver Center
Sat 11:42:54 AM 37.3967 -104.1061 258° West 437 503 38,000  Level Denver Center
Sat 11:43:57 AM 37.3775 -104.2511 261° West 435 501 38,000  Level Denver Center
Sat 11:44:59 AM 37.3533 -104.4175 260° West 433 498 38,000  Level Denver Center
Sat 11:46:01 AM 37.3325 -104.5600 260° West 433 498 38,000  Level Denver Center
Sat 11:47:03 AM 37.3078 -104.7256 259° West 432 497 38,000  Level Denver Center
Sat 11:48:05 AM 37.2856 -104.8672 259° West 431 496 38,000  Level Denver Center
Sat 11:49:07 AM 37.2606 -105.0322 259° West 431 496 38,000  Level Denver Center
Sat 11:50:09 AM 37.2394 -105.1725 259° West 429 494 38,000  Level Denver Center
Sat 11:51:11 AM 37.2175 -105.3150 259° West 432 497 38,000  Level Denver Center
Sat 11:52:13 AM 37.1914 -105.4808 259° West 434 499 38,000  Level Denver Center
Sat 11:53:15 AM 37.1694 -105.6217 259° West 431 496 38,000  Level Denver Center
Sat 11:54:17 AM 37.1433 -105.7861 259° West 430 495 38,000  Level Denver Center
Sat 11:55:19 AM 37.1167 -105.9453 258° West 430 495 38,000  Level Denver Center
Sat 11:56:21 AM 37.0953 -106.0858 259° West 429 494 38,000  Level Denver Center
Sat 11:57:23 AM 37.0725 -106.2247 258° West 427 491 38,000  Level Denver Center
Sat 11:58:25 AM 37.0456 -106.3864 258° West 425 489 38,000  Level Denver Center
Sat 11:59:27 AM 37.0219 -106.5239 258° West 424 488 38,000  Level Denver Center
Sat 12:00:29 PM 36.9967 -106.6850 259° West 423 487 38,000  Level Denver Center
Sat 12:01:32 PM 36.9733 -106.8222 258° West 422 486 38,000  Level Denver Center
Sat 12:02:34 PM 36.9458 -106.9825 258° West 422 486 38,000  Level Denver Center
Sat 12:03:36 PM 36.9219 -107.1197 258° West 423 487 38,000  Level Denver Center
Sat 12:04:38 PM 36.8944 -107.2814 258° West 426 490 38,000  Level Denver Center
Sat 12:05:40 PM 36.8692 -107.4192 257° West 427 491 38,000  Level Denver Center
Sat 12:06:42 PM 36.8408 -107.5797 258° West 424 488 38,000  Level Denver Center
Sat 12:07:44 PM 36.8172 -107.7189 258° West 428 493 38,000  Level Denver Center
Sat 12:08:46 PM 36.7889 -107.8786 258° West 424 488 38,000  Level Denver Center
Sat 12:09:48 PM 36.7642 -108.0136 257° West 420 483 38,000  Level Denver Center
Sat 12:10:50 PM 36.7358 -108.1722 257° West 419 482 38,000  Level Denver Center
Sat 12:11:52 PM 36.7119 -108.3064 258° West 416 479 38,000  Level Denver Center
Sat 12:12:54 PM 36.6839 -108.4642 258° West 419 482 38,000  Level Denver Center
Sat 12:13:56 PM 36.6594 -108.5978 257° West 417 480 38,000  Level Denver Center
Sat 12:14:58 PM 36.6297 -108.7547 257° West 418 481 38,000  Level Denver Center
Sat 12:16:00 PM 36.6033 -108.8881 256° West 418 481 38,000  Level Denver Center
Sat 12:17:03 PM 36.5739 -109.0444 257° West 419 482 38,000  Level Denver Center
Sat 12:18:17 PM 36.5439 -109.2028 257° West 421 484 38,000  Level Denver Center
Sat 12:19:19 PM 36.5133 -109.3622 257° West 426 490 38,000  Level Denver Center
Sat 12:20:21 PM 36.4872 -109.4981 257° West 424 488 38,000  Level Denver Center
Sat 12:21:23 PM 36.4564 -109.6564 256° West 424 488 38,000  Level Denver Center
Sat 12:22:25 PM 36.4286 -109.7917 256° West 422 486 38,000  Level Denver Center
Sat 12:23:27 PM 36.3989 -109.9486 257° West 420 483 38,000  Level Denver Center
Sat 12:24:29 PM 36.3725 -110.0825 256° West 418 481 38,000 -194 Level Denver Center
Sat 12:25:31 PM 36.3447 -110.2231 256° West 421 484 37,600 -435 Descending Denver Center
Sat 12:26:33 PM 36.3156 -110.3633 256° West 420 483 37,100 -484 Descending Denver Center
Sat 12:27:35 PM 36.2803 -110.5347 256° West 425 489 36,600 -480 Descending Denver Center
Sat 12:28:38 PM 36.2506 -110.6781 256° West 429 494 36,100 -432 Descending Denver Center
Sat 12:29:40 PM 36.2214 -110.8228 256° West 432 497 35,700 -726 Descending Denver Center
Sat 12:30:42 PM 36.1911 -110.9675 256° West 433 498 34,600 -1,887 Descending Denver Center
Sat 12:31:44 PM 36.1606 -111.1158 256° West 441 507 31,800 -2,226 Descending Denver Center
Sat 12:32:46 PM 36.1278 -111.2667 255° West 450 518 30,000 -871 Descending Denver Center
Sat 12:33:48 PM 36.0908 -111.4458 256° West 448 516 30,000  Level Denver Center
Sat 12:34:50 PM 36.0600 -111.5889 255° West 436 502 30,000  Level Denver Center
Sat 12:35:44 PM 36.0347 -111.7031 255° West 427 491 30,000  Level Los Angeles Center
Sat 12:36:46 PM 36.0042 -111.8442 255° West 426 490 30,000 -48 Level Los Angeles Center
Sat 12:37:48 PM 35.9689 -112.0061 255° West 423 487 29,900 -288 Descending Los Angeles Center
Sat 12:38:51 PM 35.9392 -112.1461 255° West 425 489 29,400 -432 Descending Los Angeles Center
Sat 12:39:53 PM 35.9089 -112.2836 255° West 420 483 29,000 -435 Descending Los Angeles Center
Sat 12:40:55 PM 35.8783 -112.4228 255° West 423 487 28,500 -484 Descending Los Angeles Center
Sat 12:41:57 PM 35.8417 -112.5894 255° West 425 489 28,000 -242 Descending Los Angeles Center
Sat 12:42:59 PM 35.8106 -112.7269 254° West 422 486 28,000  Level Los Angeles Center
Sat 12:44:01 PM 35.7806 -112.8622 255° West 416 479 28,000  Level Los Angeles Center
Sat 12:45:03 PM 35.7506 -112.9981 255° West 416 479 28,000 -339 Level Los Angeles Center
Sat 12:46:05 PM 35.7136 -113.1606 254° West 418 481 27,300 -823 Descending Los Angeles Center
Sat 12:47:07 PM 35.6839 -113.2889 254° West 404 465 26,300 -968 Descending Los Angeles Center
Sat 12:48:09 PM 35.6542 -113.4147 254° West 392 451 25,300 -1,065 Descending Los Angeles Center
Sat 12:49:11 PM 35.6314 -113.5439 258° West 395 455 24,100 -1,403 Descending Los Angeles Center
Sat 12:50:13 PM 35.6481 -113.6792 279° West 404 465 22,400 -2,208 Descending Los Angeles Center
Sat 12:51:16 PM 35.6719 -113.8503 280° West 424 488 19,500 -2,544 Descending Los Angeles Center
Sat 12:52:18 PM 35.6892 -113.9858 279° West 411 473 17,100 -2,177 Descending Los Angeles Center
Sat 12:53:20 PM 35.7067 -114.1114 280° West 384 442 15,000 -2,182 Descending Los Angeles Center
Sat 12:53:57 PM 35.7167 -114.2017 278° West 387 445 13,500 -1,761 Descending Los Angeles Center
Sat 12:54:52 PM 35.7331 -114.3128 280° West 365 420 12,300 -966 Descending Los Angeles Center
Sat 12:55:24 PM 35.7397 -114.3619 279° West 352 405 12,100 -191 Descending Los Angeles Center
Sat 12:56:26 PM 35.8114 -114.4156 329° Northwest 321 369 12,000 -194 Descending Los Angeles Center
Sat 12:57:28 PM 35.8775 -114.4467 339° North 317 365 11,700 -726 Descending Los Angeles Center
Sat 12:58:30 PM 35.9831 -114.4958 339° North 290 334 10,500 -823 Descending Los Angeles Center
Sat 12:59:32 PM 36.0403 -114.5381 329° Northwest 255 293 10,000 -823 Descending Los Angeles Center
Sat 01:00:34 PM 36.0569 -114.6208 284° West 245 282 8,800 -968 Descending Los Angeles Center
Sat 01:01:36 PM 36.0714 -114.7033 282° West 244 281 8,000 -677 Descending Los Angeles Center
Sat 01:02:38 PM 36.0761 -114.7878 274° West 244 281 7,400 960 Descending Los Angeles Center
Sat 01:03:41 PM 36.0742 -114.8683 268° West 241 277 10,000 -1,200 Climbing Los Angeles Center
Sat 01:04:43 PM 36.0739 -114.9503 270° West 238 274 4,900 -3,145 Descending Los Angeles Center
Sat 01:05:45 PM 36.0744 -115.0364 270° West 224 258 3,500 -1,071 Descending Los Angeles Center
Sat 01:07:03 PM 36.0739 -115.1078 269° West 163 188 2,400 -618 Descending Los Angeles Center
Sat 01:08:01 PM 36.0742 -115.1389 271° West 177 204 2,100 -310 Descending Los Angeles Center

Login

Don't have an account? Register now (free) for customized features, flight alerts, and more!